Purki — 9HA2386 — position and weather

sailwx.info

Track history (hours):
 
Tides and Currents Weather Stations Pressure Air Temp Water Temp Dewpoint Dewpoint Depression Visibility Wind Speed Wind Dir Waves Ship Positions

Purki

Last reported at 2014-Sep-01 05:20 UTC. Time now 2014-Sep-01 07:47 UTC.
Position N 39°57' E 025°56'.

Length 147 m; draft 8.7 m.

Type: Ship. MMSI: 248495000.

Date/timePositionNaut miles runAvg speedWind from/ knotsBaromVisibWave heightAir tempDewpointWater temp
2014-Sep-01 05:20N 39°57' E 025°56'3813.6
2014-Sep-01 02:32N 40°19' E 026°36'1512.7
2014-Sep-01 01:20N 40°28' E 026°51'8512.5
2014-Aug-31 18:32N 40°27' E 028°42'1313.4
2014-Aug-31 17:33N 40°25' E 028°60'4 1.2
2014-Aug-31 14:29N 40°25' E 029°05'0 0.0
2014-Aug-31 11:29N 40°25' E 029°05'20 8.8
2014-Aug-31 09:12N 40°38' E 028°44'913.2
2014-Aug-31 08:33N 40°46' E 028°43'1110.3
2014-Aug-31 07:28N 40°57' E 028°39'2 0.1
2014-Aug-30 06:14N 40°57' E 028°41'2 2.0
2014-Aug-30 05:20N 40°57' E 028°39'0 0.0
2014-Aug-30 01:20N 40°57' E 028°39'0 0.0
2014-Aug-30 00:20N 40°57' E 028°39'0 0.0
2014-Aug-29 17:26N 40°57' E 028°39'0 0.0
2014-Aug-29 15:08N 40°57' E 028°39'0 0.0
2014-Aug-29 11:20N 40°57' E 028°39'0 0.0
2014-Aug-29 01:20N 40°57' E 028°39'0 0.0
2014-Aug-29 00:26N 40°57' E 028°39'0 0.0
2014-Aug-28 23:26N 40°57' E 028°39'0 0.0
2014-Aug-28 21:32N 40°57' E 028°39'0 0.0
2014-Aug-28 18:32N 40°57' E 028°39'0 0.0
2014-Aug-28 16:32N 40°57' E 028°39'0 0.0
2014-Aug-28 14:20N 40°57' E 028°39'0 0.0
2014-Aug-27 00:14N 40°57' E 028°39'0 0.0
2014-Aug-26 22:08N 40°57' E 028°39'0 0.0
2014-Aug-26 09:14N 40°57' E 028°39'0 0.0
2014-Aug-26 06:10N 40°57' E 028°39'0 0.0
2014-Aug-26 05:21N 40°57' E 028°39'1 0.6
2014-Aug-26 04:33N 40°57' E 028°39'206 7.9
2014-Aug-25 02:28N 38°00' E 026°21'1312.5
2014-Aug-25 01:28N 37°49' E 026°28'1612.8
2014-Aug-25 00:12N 37°35' E 026°38'912.4
2014-Aug-24 23:30N 37°28' E 026°44'1212.6
2014-Aug-24 22:34N 37°18' E 026°52'1312.7
2014-Aug-24 21:33N 37°07' E 027°01'3110.0
2014-Aug-24 18:27N 36°40' E 027°20'  
Track history (hours):
 
Tides and Currents Weather Stations Pressure Air Temp Water Temp Dewpoint Dewpoint Depression Visibility Wind Speed Wind Dir Waves Ship Positions

Purki

Last reported at 2014-Sep-01 05:20 UTC. Time now 2014-Sep-01 07:47 UTC.
Position N 39°57' E 025°56'.

Length 147 m; draft 8.7 m.

Type: Ship. MMSI: 248495000.

Date/timePositionNaut miles runAvg speedWind from/ knotsBaromVisibWave heightAir tempDewpointWater temp
2014-Sep-01 05:20N 39°57' E 025°56'3813.6
2014-Sep-01 02:32N 40°19' E 026°36'1512.7
2014-Sep-01 01:20N 40°28' E 026°51'8512.5
2014-Aug-31 18:32N 40°27' E 028°42'1313.4
2014-Aug-31 17:33N 40°25' E 028°60'4 1.2
2014-Aug-31 14:29N 40°25' E 029°05'0 0.0
2014-Aug-31 11:29N 40°25' E 029°05'20 8.8
2014-Aug-31 09:12N 40°38' E 028°44'913.2
2014-Aug-31 08:33N 40°46' E 028°43'1110.3
2014-Aug-31 07:28N 40°57' E 028°39'2 0.1
2014-Aug-30 06:14N 40°57' E 028°41'2 2.0
2014-Aug-30 05:20N 40°57' E 028°39'0 0.0
2014-Aug-30 01:20N 40°57' E 028°39'0 0.0
2014-Aug-30 00:20N 40°57' E 028°39'0 0.0
2014-Aug-29 17:26N 40°57' E 028°39'0 0.0
2014-Aug-29 15:08N 40°57' E 028°39'0 0.0
2014-Aug-29 11:20N 40°57' E 028°39'0 0.0
2014-Aug-29 01:20N 40°57' E 028°39'0 0.0
2014-Aug-29 00:26N 40°57' E 028°39'0 0.0
2014-Aug-28 23:26N 40°57' E 028°39'0 0.0
2014-Aug-28 21:32N 40°57' E 028°39'0 0.0
2014-Aug-28 18:32N 40°57' E 028°39'0 0.0
2014-Aug-28 16:32N 40°57' E 028°39'0 0.0
2014-Aug-28 14:20N 40°57' E 028°39'0 0.0
2014-Aug-27 00:14N 40°57' E 028°39'0 0.0
2014-Aug-26 22:08N 40°57' E 028°39'0 0.0
2014-Aug-26 09:14N 40°57' E 028°39'0 0.0
2014-Aug-26 06:10N 40°57' E 028°39'0 0.0
2014-Aug-26 05:21N 40°57' E 028°39'1 0.6
2014-Aug-26 04:33N 40°57' E 028°39'206 7.9
2014-Aug-25 02:28N 38°00' E 026°21'1312.5
2014-Aug-25 01:28N 37°49' E 026°28'1612.8
2014-Aug-25 00:12N 37°35' E 026°38'912.4
2014-Aug-24 23:30N 37°28' E 026°44'1212.6
2014-Aug-24 22:34N 37°18' E 026°52'1312.7
2014-Aug-24 21:33N 37°07' E 027°01'3110.0
2014-Aug-24 18:27N 36°40' E 027°20'  

Dump ship's entire track history